createdAt,value
2018-08-12T00:00:23.572Z,2.30
2018-08-12T00:02:53.492Z,2.20
2018-08-12T00:05:22.255Z,2.57
2018-08-12T00:07:50.623Z,2.53
2018-08-12T00:11:21.893Z,2.00
2018-08-12T00:13:50.368Z,2.90
2018-08-12T00:16:18.791Z,2.60
2018-08-12T00:18:48.150Z,3.07
2018-08-12T00:21:16.618Z,2.70
2018-08-12T00:23:45.058Z,1.90
2018-08-12T00:26:13.634Z,2.60
2018-08-12T00:28:42.181Z,2.60
2018-08-12T00:31:10.541Z,2.23
2018-08-12T00:33:38.909Z,3.07
2018-08-12T00:36:07.419Z,3.60
2018-08-12T00:38:35.801Z,3.20
2018-08-12T00:41:03.882Z,3.60
2018-08-12T00:43:32.072Z,3.50
2018-08-12T00:46:01.386Z,3.87
2018-08-12T00:48:29.884Z,3.53
2018-08-12T00:50:58.217Z,3.30
2018-08-12T00:53:26.719Z,2.80
2018-08-12T00:55:55.021Z,3.13
2018-08-12T00:58:23.487Z,3.37
2018-08-12T01:00:52.042Z,2.90
2018-08-12T01:03:20.486Z,3.37
2018-08-12T01:05:48.941Z,2.63
2018-08-12T01:08:17.322Z,2.70
2018-08-12T01:10:45.867Z,2.77
2018-08-12T01:13:14.560Z,2.80
2018-08-12T01:15:42.893Z,2.80
2018-08-12T01:18:11.394Z,3.07
2018-08-12T01:20:39.993Z,3.20
2018-08-12T01:23:08.515Z,2.80
2018-08-12T01:25:37.006Z,2.73
2018-08-12T01:28:05.631Z,2.97
2018-08-12T01:30:34.321Z,2.70
2018-08-12T01:33:02.699Z,2.30
2018-08-12T01:35:31.162Z,3.17
2018-08-12T01:38:00.687Z,2.90
2018-08-12T01:40:29.491Z,2.63
2018-08-12T01:42:57.859Z,2.60
2018-08-12T01:45:26.150Z,2.77
2018-08-12T01:47:54.739Z,2.70
2018-08-12T01:50:23.289Z,2.40
2018-08-12T01:52:51.868Z,2.70
2018-08-12T01:55:20.383Z,2.20
2018-08-12T01:57:49.016Z,2.60
2018-08-12T02:00:19.207Z,2.60
2018-08-12T02:02:48.098Z,2.63
2018-08-12T02:05:17.268Z,2.60
2018-08-12T02:07:45.988Z,2.50
2018-08-12T02:10:14.567Z,2.30
2018-08-12T02:12:43.009Z,2.50
2018-08-12T02:15:12.036Z,2.47
2018-08-12T02:17:40.837Z,2.10
2018-08-12T02:20:10.139Z,2.67
2018-08-12T02:22:40.071Z,1.57
2018-08-12T02:25:09.212Z,2.30
2018-08-12T02:27:37.956Z,2.47
2018-08-12T02:30:08.090Z,2.07
2018-08-12T02:32:37.028Z,2.10
2018-08-12T02:35:06.127Z,2.23
2018-08-12T02:37:34.698Z,2.53
2018-08-12T02:40:03.142Z,2.27
2018-08-12T02:42:31.587Z,1.97
2018-08-12T02:45:00.039Z,2.37
2018-08-12T02:47:28.517Z,2.40
2018-08-12T02:49:56.876Z,1.80
2018-08-12T02:52:25.389Z,1.93
2018-08-12T02:54:53.775Z,2.23
2018-08-12T02:57:22.326Z,2.03
2018-08-12T02:59:51.853Z,2.70
2018-08-12T03:02:21.402Z,2.63
2018-08-12T03:04:50.017Z,2.13
2018-08-12T03:07:18.452Z,2.10
2018-08-12T03:09:47.923Z,2.27
2018-08-12T03:12:16.403Z,2.57
2018-08-12T03:14:44.824Z,2.67
2018-08-12T03:17:13.178Z,2.43
2018-08-12T03:19:41.638Z,1.90
2018-08-12T03:22:10.065Z,2.10
2018-08-12T03:24:38.768Z,2.33
2018-08-12T03:27:07.266Z,2.30
2018-08-12T03:29:39.555Z,2.20
2018-08-12T03:32:08.146Z,2.63
2018-08-12T03:34:36.725Z,1.93
2018-08-12T03:37:05.491Z,2.40
2018-08-12T03:39:33.988Z,2.33
2018-08-12T03:42:02.607Z,2.27
2018-08-12T03:44:31.031Z,2.73
2018-08-12T03:46:59.683Z,2.20
2018-08-12T03:49:28.384Z,2.70
2018-08-12T03:51:57.879Z,2.20
2018-08-12T03:54:26.155Z,2.23
2018-08-12T03:56:55.936Z,2.40
2018-08-12T03:59:24.614Z,2.50
2018-08-12T04:01:53.089Z,2.37
2018-08-12T04:04:21.702Z,2.40
2018-08-12T04:06:50.059Z,2.70
2018-08-12T04:09:18.677Z,2.60
2018-08-12T04:11:47.093Z,2.20
2018-08-12T04:14:15.538Z,2.27
2018-08-12T04:16:50.156Z,2.70
2018-08-12T04:19:18.505Z,2.80
2018-08-12T04:21:46.923Z,2.70
2018-08-12T04:24:15.234Z,3.00
2018-08-12T04:26:43.615Z,3.20
2018-08-12T04:29:12.014Z,3.20
2018-08-12T04:31:40.382Z,2.43
2018-08-12T04:34:08.827Z,2.90
2018-08-12T04:36:37.298Z,2.20
2018-08-12T04:39:08.314Z,2.27
2018-08-12T04:41:36.776Z,2.30
2018-08-12T04:44:05.114Z,2.27
2018-08-12T04:46:33.924Z,2.10
2018-08-12T04:49:04.355Z,2.40
2018-08-12T04:51:32.813Z,2.20
2018-08-12T04:54:01.152Z,2.37
2018-08-12T04:56:29.192Z,2.17
2018-08-12T04:58:57.722Z,1.97
2018-08-12T05:01:26.283Z,2.63
2018-08-12T05:03:54.683Z,2.20
2018-08-12T05:06:23.090Z,1.97
2018-08-12T05:08:51.374Z,2.27
2018-08-12T05:11:19.781Z,2.30
2018-08-12T05:13:48.047Z,2.40
2018-08-12T05:16:16.346Z,2.60
2018-08-12T05:18:44.754Z,2.77
2018-08-12T05:21:13.171Z,3.10
2018-08-12T05:23:41.537Z,3.00
2018-08-12T05:26:09.932Z,3.10
2018-08-12T05:28:38.283Z,2.97
2018-08-12T05:31:07.655Z,3.03
2018-08-12T05:33:36.026Z,2.93
2018-08-12T05:36:04.516Z,3.33
2018-08-12T05:38:32.893Z,3.30
2018-08-12T05:41:01.342Z,2.97
2018-08-12T05:43:29.773Z,2.80
2018-08-12T05:45:58.271Z,3.70
2018-08-12T05:48:27.266Z,2.73
2018-08-12T05:50:55.725Z,3.17
2018-08-12T05:53:24.136Z,2.33
2018-08-12T05:55:52.606Z,2.60
2018-08-12T05:58:21.102Z,3.10
2018-08-12T06:00:49.407Z,3.53
2018-08-12T06:03:17.792Z,3.50
2018-08-12T06:05:46.312Z,1.87
2018-08-12T06:08:14.774Z,2.73
2018-08-12T06:10:43.146Z,2.47
2018-08-12T06:13:11.712Z,2.50
2018-08-12T06:15:40.163Z,2.47
2018-08-12T06:18:08.727Z,2.23
2018-08-12T06:20:37.523Z,2.63
2018-08-12T06:23:06.244Z,1.90
2018-08-12T06:25:35.270Z,1.93
2018-08-12T06:28:03.754Z,2.20
2018-08-12T06:30:32.387Z,2.10
2018-08-12T06:33:00.638Z,2.70
2018-08-12T06:35:29.106Z,2.57
2018-08-12T06:37:57.715Z,2.80
2018-08-12T06:40:26.240Z,2.33
2018-08-12T06:42:54.999Z,2.50
2018-08-12T06:45:23.535Z,2.00
2018-08-12T06:47:51.940Z,2.60
2018-08-12T06:50:20.400Z,2.00
2018-08-12T06:52:48.856Z,2.10
2018-08-12T06:55:17.320Z,1.90
2018-08-12T06:57:45.779Z,2.17
2018-08-12T07:00:16.336Z,1.90
2018-08-12T07:02:45.060Z,1.70
2018-08-12T07:05:13.208Z,2.17
2018-08-12T07:07:41.625Z,2.43
2018-08-12T07:10:12.157Z,2.03
2018-08-12T07:12:41.207Z,1.90
2018-08-12T07:15:13.026Z,2.23
2018-08-12T07:17:42.370Z,2.17
2018-08-12T07:20:11.431Z,1.90
2018-08-12T07:22:40.259Z,2.23
2018-08-12T07:25:10.206Z,1.90
2018-08-12T07:27:39.339Z,2.13
2018-08-12T07:30:10.481Z,2.23
2018-08-12T07:32:39.027Z,1.90
2018-08-12T07:35:09.124Z,2.17
2018-08-12T07:37:37.612Z,2.07
2018-08-12T07:40:11.737Z,1.83
2018-08-12T07:42:40.200Z,1.80
2018-08-12T07:45:10.579Z,1.80
2018-08-12T07:47:41.206Z,1.80
2018-08-12T07:50:10.234Z,2.07
2018-08-12T07:52:42.115Z,1.97
2018-08-12T07:55:11.788Z,1.93
2018-08-12T07:57:40.595Z,2.00
2018-08-12T08:00:15.482Z,1.80
2018-08-12T08:02:44.236Z,2.10
2018-08-12T08:05:13.195Z,2.10
2018-08-12T08:07:41.849Z,2.30
2018-08-12T08:10:12.750Z,1.50
2018-08-12T08:12:41.610Z,2.00
2018-08-12T08:15:15.397Z,1.90
2018-08-12T08:17:43.826Z,2.07
2018-08-12T08:20:13.050Z,2.00
2018-08-12T08:22:41.527Z,2.10
2018-08-12T08:25:10.628Z,1.90
2018-08-12T08:27:39.338Z,1.90
2018-08-12T08:30:10.185Z,1.83
2018-08-12T08:32:39.026Z,1.30
2018-08-12T08:35:07.468Z,1.87
2018-08-12T08:37:36.165Z,2.30
2018-08-12T08:40:10.879Z,1.87
2018-08-12T08:42:39.513Z,1.90
2018-08-12T08:45:14.273Z,1.83
2018-08-12T08:47:43.886Z,1.90
2018-08-12T08:50:12.388Z,1.30
2018-08-12T08:52:41.995Z,1.90
2018-08-12T08:55:11.846Z,2.00
2018-08-12T08:57:40.319Z,2.13
2018-08-12T09:00:12.434Z,1.80
2018-08-12T09:02:41.580Z,1.80
2018-08-12T09:08:43.640Z,1.80
2018-08-12T09:11:11.833Z,2.00
2018-08-12T09:13:40.296Z,1.60
2018-08-12T09:16:08.739Z,1.70
2018-08-12T09:18:37.099Z,1.73
2018-08-12T09:21:05.837Z,2.17
2018-08-12T09:23:34.299Z,1.70
2018-08-12T09:26:02.800Z,1.77
2018-08-12T09:28:31.695Z,1.70
2018-08-12T09:31:00.210Z,2.03
2018-08-12T09:33:28.719Z,1.77
2018-08-12T09:35:57.208Z,1.73
2018-08-12T09:38:25.682Z,1.83
2018-08-12T09:40:54.358Z,2.00
2018-08-12T09:43:22.878Z,2.00
2018-08-12T09:45:51.452Z,2.07
2018-08-12T09:48:19.966Z,1.90
2018-08-12T09:50:48.329Z,2.03
2018-08-12T09:53:16.877Z,3.03
2018-08-12T09:55:46.338Z,2.07
2018-08-12T09:58:14.516Z,2.10
2018-08-12T10:00:43.020Z,2.33
2018-08-12T10:03:11.582Z,2.17
2018-08-12T10:05:41.090Z,1.80
2018-08-12T10:08:10.605Z,1.80
2018-08-12T10:10:39.731Z,1.80
2018-08-12T10:13:12.541Z,1.30
2018-08-12T10:15:43.303Z,2.10
2018-08-12T10:18:11.924Z,1.97
2018-08-12T10:20:40.410Z,1.80
2018-08-12T10:23:09.113Z,2.57
2018-08-12T10:25:37.777Z,1.80
2018-08-12T10:28:06.444Z,2.23
2018-08-12T10:30:35.000Z,1.80
2018-08-12T10:33:05.166Z,1.90
2018-08-12T10:35:38.135Z,2.20
2018-08-12T10:38:08.511Z,1.90
2018-08-12T10:40:46.330Z,2.47
2018-08-12T10:43:14.870Z,2.40
2018-08-12T10:45:43.564Z,1.83
2018-08-12T10:48:12.209Z,1.70
2018-08-12T10:50:40.764Z,2.10
2018-08-12T10:53:09.208Z,1.93
2018-08-12T10:55:37.656Z,1.83
2018-08-12T10:58:06.080Z,1.70
2018-08-12T11:00:35.585Z,1.90
2018-08-12T11:03:05.201Z,1.90
2018-08-12T11:05:33.576Z,1.90
2018-08-12T11:08:02.783Z,2.20
2018-08-12T11:10:31.073Z,2.27
2018-08-12T11:13:01.243Z,1.90
2018-08-12T11:15:29.803Z,1.90
2018-08-12T11:17:58.378Z,1.90
2018-08-12T11:20:26.992Z,1.80
2018-08-12T11:22:55.323Z,2.33
2018-08-12T11:25:23.825Z,2.00
2018-08-12T11:27:53.299Z,1.63
2018-08-12T11:30:21.726Z,1.80
2018-08-12T11:32:50.146Z,2.13
2018-08-12T11:35:18.544Z,2.00
2018-08-12T11:37:47.042Z,2.20
2018-08-12T11:40:15.681Z,2.13
2018-08-12T11:42:44.357Z,1.90
2018-08-12T11:45:14.982Z,1.60
2018-08-12T11:47:44.211Z,1.70
2018-08-12T11:50:14.548Z,2.03
2018-08-12T11:52:43.731Z,1.93
2018-08-12T11:55:13.288Z,1.87
2018-08-12T11:57:42.655Z,2.17
2018-08-12T12:00:15.329Z,1.80
2018-08-12T12:02:44.845Z,2.20
2018-08-12T12:05:14.054Z,2.07
2018-08-12T12:07:42.513Z,2.00
2018-08-12T12:10:13.470Z,2.10
2018-08-12T12:12:44.065Z,1.80
2018-08-12T12:15:13.553Z,2.03
2018-08-12T12:17:41.982Z,2.00
2018-08-12T12:20:11.255Z,2.03
2018-08-12T12:22:40.566Z,1.93
2018-08-12T12:25:14.296Z,2.13
2018-08-12T12:27:42.771Z,1.80
2018-08-12T12:30:14.684Z,2.33
2018-08-12T12:32:44.116Z,2.40
2018-08-12T12:35:13.555Z,2.10
2018-08-12T12:37:42.317Z,2.10
2018-08-12T12:40:13.047Z,2.40
2018-08-12T12:42:41.648Z,2.20
2018-08-12T12:45:13.107Z,1.70
2018-08-12T12:47:41.934Z,2.20
2018-08-12T12:50:20.449Z,2.13
2018-08-12T12:52:49.627Z,2.37
2018-08-12T12:55:18.885Z,2.10
2018-08-12T12:58:50.547Z,2.10
2018-08-12T13:01:18.992Z,2.10
2018-08-12T13:03:49.458Z,1.90
2018-08-12T13:06:18.952Z,2.20
2018-08-12T13:08:47.457Z,2.00
2018-08-12T13:11:16.211Z,1.73
2018-08-12T13:13:45.841Z,2.00
2018-08-12T13:16:16.320Z,2.50
2018-08-12T13:18:45.807Z,2.00
2018-08-12T13:21:15.391Z,2.30
2018-08-12T13:23:43.893Z,2.13
2018-08-12T13:26:12.300Z,2.30
2018-08-12T13:28:41.809Z,2.20
2018-08-12T13:31:10.205Z,2.30
2018-08-12T13:33:38.700Z,2.47
2018-08-12T13:36:07.143Z,2.80
2018-08-12T13:38:35.652Z,2.57
2018-08-12T13:41:04.149Z,2.37
2018-08-12T13:43:32.804Z,1.90
2018-08-12T13:46:01.190Z,2.43
2018-08-12T13:48:29.664Z,2.30
2018-08-12T13:50:58.023Z,2.63
2018-08-12T13:53:27.647Z,2.10
2018-08-12T13:55:56.098Z,2.47
2018-08-12T13:58:24.455Z,2.50
2018-08-12T14:00:52.763Z,2.37
2018-08-12T14:03:20.918Z,2.13
2018-08-12T14:05:49.068Z,2.37
2018-08-12T14:08:17.741Z,2.40
2018-08-12T14:10:46.107Z,2.20
2018-08-12T14:13:14.597Z,2.63
2018-08-12T14:15:43.075Z,2.33
2018-08-12T14:18:15.380Z,2.10
2018-08-12T14:20:43.745Z,2.20
2018-08-12T14:23:12.458Z,2.40
2018-08-12T14:25:42.501Z,2.40
2018-08-12T14:28:11.100Z,2.17
2018-08-12T14:30:39.635Z,2.40
2018-08-12T14:33:08.199Z,2.07
2018-08-12T14:35:38.694Z,2.23
2018-08-12T14:38:07.558Z,1.83
2018-08-12T14:40:36.047Z,2.03
2018-08-12T14:43:04.642Z,1.87
2018-08-12T14:45:33.616Z,2.33
2018-08-12T14:48:01.803Z,2.73
2018-08-12T14:50:30.503Z,2.00
2018-08-12T14:52:59.594Z,2.40
2018-08-12T14:55:28.321Z,2.37
2018-08-12T14:57:56.957Z,2.50
2018-08-12T15:00:25.575Z,2.40
2018-08-12T15:02:54.791Z,2.30
2018-08-12T15:05:22.988Z,2.00
2018-08-12T15:07:51.894Z,2.47
2018-08-12T15:10:20.541Z,2.10
2018-08-12T15:12:49.957Z,2.23
2018-08-12T15:15:20.643Z,2.00
2018-08-12T15:17:49.019Z,2.67
2018-08-12T15:20:17.692Z,1.97
2018-08-12T15:22:47.182Z,2.40
2018-08-12T15:25:17.939Z,2.57
2018-08-12T15:27:46.863Z,2.27
2018-08-12T15:30:15.322Z,2.60
2018-08-12T15:32:43.822Z,2.10
2018-08-12T15:35:12.311Z,2.43
2018-08-12T15:37:40.732Z,2.23
2018-08-12T15:40:16.050Z,2.40
2018-08-12T15:42:53.214Z,2.43
2018-08-12T15:45:29.059Z,1.93
2018-08-12T15:47:58.263Z,2.20
2018-08-12T15:50:26.939Z,2.27
2018-08-12T15:52:56.566Z,2.73
2018-08-12T15:55:26.062Z,2.20
2018-08-12T15:57:54.552Z,2.37
2018-08-12T16:00:23.532Z,1.97
2018-08-12T16:02:53.817Z,2.70
2018-08-12T16:05:23.487Z,2.50
2018-08-12T16:07:51.844Z,2.50
2018-08-12T16:10:22.323Z,1.90
2018-08-12T16:12:51.887Z,2.73
2018-08-12T16:15:20.597Z,2.20
2018-08-12T16:17:49.128Z,2.33
2018-08-12T16:20:17.514Z,2.00
2018-08-12T16:22:45.872Z,2.10
2018-08-12T16:25:15.819Z,2.50
2018-08-12T16:27:44.502Z,2.57
2018-08-12T16:30:14.355Z,2.40
2018-08-12T16:32:42.998Z,2.17
2018-08-12T16:35:13.701Z,2.20
2018-08-12T16:37:43.436Z,2.17
2018-08-12T16:40:13.560Z,2.00
2018-08-12T16:42:41.867Z,2.40
2018-08-12T16:45:11.770Z,2.10
2018-08-12T16:47:40.200Z,2.27
2018-08-12T16:50:09.442Z,2.00
2018-08-12T16:52:38.091Z,1.93
2018-08-12T16:55:08.169Z,2.17
2018-08-12T16:57:36.558Z,2.50
2018-08-12T17:00:08.358Z,2.23
2018-08-12T17:02:37.042Z,2.43
2018-08-12T17:05:07.881Z,2.13
2018-08-12T17:07:36.283Z,2.50
2018-08-12T17:10:05.785Z,2.30
2018-08-12T17:12:35.009Z,1.63
2018-08-12T17:15:04.434Z,2.30
2018-08-12T17:17:32.978Z,2.40
2018-08-12T17:20:01.589Z,2.20
2018-08-12T17:22:31.118Z,2.03
2018-08-12T17:24:59.631Z,2.13
2018-08-12T17:27:28.200Z,2.30
2018-08-12T17:29:56.638Z,2.30
2018-08-12T17:32:24.913Z,1.87
2018-08-12T17:34:53.404Z,2.10
2018-08-12T17:37:21.852Z,2.40
2018-08-12T17:39:50.301Z,2.33
2018-08-12T17:42:19.748Z,2.43
2018-08-12T17:44:49.422Z,2.10
2018-08-12T17:47:17.915Z,2.20
2018-08-12T17:49:46.600Z,2.20
2018-08-12T17:52:15.446Z,1.50
2018-08-12T17:54:44.089Z,2.03
2018-08-12T17:57:12.823Z,2.20
2018-08-12T17:59:41.312Z,2.20
2018-08-12T18:02:09.748Z,2.33
2018-08-12T18:04:38.253Z,2.40
2018-08-12T18:07:06.806Z,2.30
2018-08-12T18:09:35.216Z,2.37
2018-08-12T18:12:03.829Z,1.77
2018-08-12T18:14:32.323Z,2.67
2018-08-12T18:17:00.742Z,2.73
2018-08-12T18:19:29.179Z,2.40
2018-08-12T18:21:57.642Z,2.50
2018-08-12T18:24:27.401Z,2.60
2018-08-12T18:26:55.844Z,2.40
2018-08-12T18:29:24.311Z,2.73
2018-08-12T18:31:52.843Z,3.07
2018-08-12T18:34:21.301Z,2.53
2018-08-12T18:36:49.738Z,3.50
2018-08-12T18:39:18.302Z,2.80
2018-08-12T18:41:46.857Z,2.87
2018-08-12T18:44:15.143Z,3.30
2018-08-12T18:46:43.340Z,3.00
2018-08-12T18:49:11.818Z,3.13
2018-08-12T18:51:40.285Z,3.40
2018-08-12T18:54:08.423Z,3.53
2018-08-12T18:56:37.020Z,3.47
2018-08-12T18:59:05.375Z,3.07
2018-08-12T19:01:33.753Z,3.90
2018-08-12T19:04:02.462Z,3.20
2018-08-12T19:06:31.092Z,3.30
2018-08-12T19:08:59.692Z,3.50
2018-08-12T19:11:28.534Z,4.00
2018-08-12T19:13:57.073Z,3.33
2018-08-12T19:16:25.692Z,3.50
2018-08-12T19:18:54.105Z,4.33
2018-08-12T19:21:22.573Z,3.57
2018-08-12T19:23:52.051Z,3.90
2018-08-12T19:26:20.679Z,3.60
2018-08-12T19:28:49.128Z,3.50
2018-08-12T19:31:17.515Z,3.60
2018-08-12T19:33:46.098Z,3.50
2018-08-12T19:36:14.524Z,3.57
2018-08-12T19:38:43.300Z,4.10
2018-08-12T19:41:11.877Z,3.40
2018-08-12T19:43:40.242Z,4.17
2018-08-12T19:46:08.723Z,4.30
2018-08-12T19:48:37.074Z,3.77
2018-08-12T19:51:05.720Z,3.80
2018-08-12T19:53:34.483Z,4.40
2018-08-12T19:56:02.981Z,4.10
2018-08-12T19:58:31.566Z,4.00
2018-08-12T20:01:00.283Z,3.93
2018-08-12T20:04:53.405Z,3.87
2018-08-12T20:07:21.934Z,3.80
2018-08-12T20:09:50.204Z,4.60
2018-08-12T20:12:18.669Z,4.80
2018-08-12T20:14:47.102Z,4.33
2018-08-12T20:17:15.303Z,4.70
2018-08-12T20:19:44.518Z,4.53
2018-08-12T20:22:14.782Z,3.77
2018-08-12T20:24:45.024Z,4.43
2018-08-12T20:27:13.714Z,4.57
2018-08-12T20:29:42.358Z,4.63
2018-08-12T20:32:10.747Z,4.70
2018-08-12T20:34:39.163Z,4.17
2018-08-12T20:37:07.704Z,4.17
2018-08-12T20:39:36.369Z,4.40
2018-08-12T20:42:04.765Z,3.80
2018-08-12T20:44:33.425Z,3.97
2018-08-12T20:47:01.984Z,3.67
2018-08-12T20:49:30.712Z,3.90
2018-08-12T20:51:59.438Z,4.27
2018-08-12T20:54:28.124Z,4.57
2018-08-12T20:56:56.696Z,5.20
2018-08-12T20:59:25.402Z,5.33
2018-08-12T21:01:54.006Z,5.13
2018-08-12T21:04:22.591Z,4.90
2018-08-12T21:06:51.033Z,4.43
2018-08-12T21:09:19.682Z,5.70
2018-08-12T21:11:47.936Z,4.23
2018-08-12T21:14:16.498Z,4.93
2018-08-12T21:16:45.174Z,5.40
2018-08-12T21:19:13.588Z,4.53
2018-08-12T21:21:42.032Z,4.50
2018-08-12T21:24:10.550Z,4.17
2018-08-12T21:26:39.031Z,4.97
2018-08-12T21:29:07.644Z,4.70
2018-08-12T21:31:36.167Z,4.80
2018-08-12T21:34:04.815Z,3.90
2018-08-12T21:36:33.288Z,3.70
2018-08-12T21:39:01.846Z,4.33
2018-08-12T21:41:30.391Z,3.93
2018-08-12T21:43:59.013Z,4.40
2018-08-12T21:46:27.616Z,4.80
2018-08-12T21:48:56.127Z,3.90
2018-08-12T21:51:24.756Z,4.00
2018-08-12T21:53:53.277Z,4.40
2018-08-12T21:56:21.682Z,4.10
2018-08-12T21:58:50.372Z,4.33
2018-08-12T22:01:18.927Z,4.87
2018-08-12T22:03:47.437Z,4.77
2018-08-12T22:06:16.004Z,4.30
2018-08-12T22:08:44.530Z,4.53
2018-08-12T22:11:12.830Z,4.20
2018-08-12T22:13:41.368Z,4.27
2018-08-12T22:16:09.839Z,3.90
2018-08-12T22:18:38.014Z,4.17
2018-08-12T22:21:06.323Z,3.60
2018-08-12T22:23:49.108Z,4.10
2018-08-12T22:26:17.413Z,4.40
2018-08-12T22:28:45.701Z,4.10
2018-08-12T22:31:13.984Z,4.50
2018-08-12T22:33:42.268Z,3.70
2018-08-12T22:36:10.589Z,3.97
2018-08-12T22:38:38.838Z,4.70
2018-08-12T22:41:07.154Z,4.40
2018-08-12T22:43:35.352Z,4.23
2018-08-12T22:46:03.676Z,4.40
2018-08-12T22:48:32.009Z,4.50
2018-08-12T22:51:00.269Z,4.53
2018-08-12T22:53:28.492Z,5.03
2018-08-12T22:55:56.730Z,4.67
2018-08-12T22:58:25.013Z,4.10
2018-08-12T23:00:53.329Z,4.23
2018-08-12T23:03:21.720Z,3.70
2018-08-12T23:05:49.964Z,3.97
2018-08-12T23:08:18.187Z,4.13
2018-08-12T23:10:46.651Z,3.40
2018-08-12T23:13:15.263Z,4.10
2018-08-12T23:16:21.330Z,3.50
2018-08-12T23:18:49.422Z,3.30
2018-08-12T23:21:18.374Z,2.97
2018-08-12T23:23:48.209Z,2.73
2018-08-12T23:26:18.095Z,3.90
2018-08-12T23:28:49.608Z,3.30
2018-08-12T23:31:17.982Z,3.37
2018-08-12T23:33:46.638Z,2.60
2018-08-12T23:36:15.080Z,2.57
2018-08-12T23:38:43.540Z,3.20
2018-08-12T23:41:12.316Z,3.03
2018-08-12T23:43:41.717Z,3.00
2018-08-12T23:46:10.974Z,2.30
2018-08-12T23:48:39.514Z,2.93
2018-08-12T23:51:08.450Z,3.23
2018-08-12T23:53:36.931Z,3.20
2018-08-12T23:56:05.715Z,2.80
2018-08-12T23:58:34.310Z,3.37
